sensor_id;sensor_type;location;lat;lon;timestamp;pressure;altitude;pressure_sealevel;temperature;humidity
43707;BME280;61348;53.392;-6.248;2023-06-01T00:02:25;102094.69;;;14.00;75.72
43707;BME280;61348;53.392;-6.248;2023-06-01T00:04:55;102100.47;;;13.95;76.04
43707;BME280;61348;53.392;-6.248;2023-06-01T00:07:21;102087.91;;;13.89;76.23
43707;BME280;61348;53.392;-6.248;2023-06-01T00:09:50;102091.47;;;13.90;76.33
43707;BME280;61348;53.392;-6.248;2023-06-01T00:12:17;102085.13;;;13.89;76.49
43707;BME280;61348;53.392;-6.248;2023-06-01T00:14:44;102092.16;;;13.87;76.41
43707;BME280;61348;53.392;-6.248;2023-06-01T00:17:11;102089.38;;;13.87;76.60
43707;BME280;61348;53.392;-6.248;2023-06-01T00:19:38;102084.13;;;13.85;76.83
43707;BME280;61348;53.392;-6.248;2023-06-01T00:22:07;102092.00;;;13.83;77.00
43707;BME280;61348;53.392;-6.248;2023-06-01T00:24:34;102099.91;;;13.81;77.00
43707;BME280;61348;53.392;-6.248;2023-06-01T00:27:01;102097.09;;;13.81;77.34
43707;BME280;61348;53.392;-6.248;2023-06-01T00:29:29;102094.78;;;13.83;77.55
43707;BME280;61348;53.392;-6.248;2023-06-01T00:31:56;102090.88;;;13.84;77.50
43707;BME280;61348;53.392;-6.248;2023-06-01T00:34:24;102092.50;;;13.85;77.43
43707;BME280;61348;53.392;-6.248;2023-06-01T00:36:50;102089.72;;;13.85;77.82
43707;BME280;61348;53.392;-6.248;2023-06-01T00:39:17;102090.88;;;13.84;77.76
43707;BME280;61348;53.392;-6.248;2023-06-01T00:41:44;102094.13;;;13.86;78.04
43707;BME280;61348;53.392;-6.248;2023-06-01T00:44:11;102091.34;;;13.86;78.01
43707;BME280;61348;53.392;-6.248;2023-06-01T00:46:39;102090.88;;;13.84;78.30
43707;BME280;61348;53.392;-6.248;2023-06-01T00:49:07;102086.44;;;13.83;78.42
43707;BME280;61348;53.392;-6.248;2023-06-01T00:51:34;102091.66;;;13.85;78.64
43707;BME280;61348;53.392;-6.248;2023-06-01T00:54:02;102080.53;;;13.85;78.61
43707;BME280;61348;53.392;-6.248;2023-06-01T00:56:29;102086.44;;;13.83;78.85
43707;BME280;61348;53.392;-6.248;2023-06-01T00:58:58;102080.25;;;13.78;78.95
43707;BME280;61348;53.392;-6.248;2023-06-01T01:01:26;102087.31;;;13.75;79.12
43707;BME280;61348;53.392;-6.248;2023-06-01T01:03:53;102083.38;;;13.76;79.08
43707;BME280;61348;53.392;-6.248;2023-06-01T01:06:49;102086.00;;;13.73;79.34
43707;BME280;61348;53.392;-6.248;2023-06-01T01:09:41;102078.47;;;13.73;79.38
43707;BME280;61348;53.392;-6.248;2023-06-01T01:17:47;102075.72;;;13.65;79.68
43707;BME280;61348;53.392;-6.248;2023-06-01T01:20:22;102076.53;;;13.65;79.61
43707;BME280;61348;53.392;-6.248;2023-06-01T01:23:06;102071.63;;;13.62;79.89
43707;BME280;61348;53.392;-6.248;2023-06-01T01:30:54;102072.00;;;13.52;79.84
43707;BME280;61348;53.392;-6.248;2023-06-01T01:33:24;102079.88;;;13.50;79.83
43707;BME280;61348;53.392;-6.248;2023-06-01T01:35:53;102073.50;;;13.50;79.98
43707;BME280;61348;53.392;-6.248;2023-06-01T01:38:20;102071.84;;;13.49;80.03
43707;BME280;61348;53.392;-6.248;2023-06-01T01:40:47;102061.38;;;13.46;79.92
43707;BME280;61348;53.392;-6.248;2023-06-01T01:43:16;102058.47;;;13.42;79.99
43707;BME280;61348;53.392;-6.248;2023-06-01T01:45:51;102055.19;;;13.40;79.99
43707;BME280;61348;53.392;-6.248;2023-06-01T01:48:25;102053.06;;;13.37;79.93
43707;BME280;61348;53.392;-6.248;2023-06-01T01:51:03;102047.69;;;13.32;80.23
43707;BME280;61348;53.392;-6.248;2023-06-01T01:53:35;102035.25;;;13.29;80.09
43707;BME280;61348;53.392;-6.248;2023-06-01T01:56:07;102043.78;;;13.24;80.18
43707;BME280;61348;53.392;-6.248;2023-06-01T01:58:34;102039.38;;;13.23;80.38
43707;BME280;61348;53.392;-6.248;2023-06-01T02:01:03;102040.88;;;13.21;80.41
43707;BME280;61348;53.392;-6.248;2023-06-01T02:03:30;102034.31;;;13.17;80.42
43707;BME280;61348;53.392;-6.248;2023-06-01T02:05:57;102028.44;;;13.18;80.41
43707;BME280;61348;53.392;-6.248;2023-06-01T02:08:24;102035.13;;;13.17;80.53
43707;BME280;61348;53.392;-6.248;2023-06-01T02:10:51;102028.94;;;13.12;80.34
43707;BME280;61348;53.392;-6.248;2023-06-01T02:13:18;102029.75;;;13.12;80.39
43707;BME280;61348;53.392;-6.248;2023-06-01T02:15:45;102030.41;;;13.09;80.56
43707;BME280;61348;53.392;-6.248;2023-06-01T02:18:12;102027.97;;;13.08;80.71
43707;BME280;61348;53.392;-6.248;2023-06-01T02:20:39;102023.03;;;13.05;80.50
43707;BME280;61348;53.392;-6.248;2023-06-01T02:23:05;102025.31;;;13.03;80.73
43707;BME280;61348;53.392;-6.248;2023-06-01T02:25:32;102029.91;;;12.99;80.77
43707;BME280;61348;53.392;-6.248;2023-06-01T02:27:59;102030.56;;;12.96;80.74
43707;BME280;61348;53.392;-6.248;2023-06-01T02:30:26;102022.88;;;12.93;80.94
43707;BME280;61348;53.392;-6.248;2023-06-01T02:32:53;102022.88;;;12.93;80.85
43707;BME280;61348;53.392;-6.248;2023-06-01T02:35:20;102021.94;;;12.89;80.86
43707;BME280;61348;53.392;-6.248;2023-06-01T02:37:47;102018.97;;;12.85;81.02
43707;BME280;61348;53.392;-6.248;2023-06-01T02:40:16;102016.56;;;12.83;81.06
43707;BME280;61348;53.392;-6.248;2023-06-01T02:42:44;102007.69;;;12.81;80.96
43707;BME280;61348;53.392;-6.248;2023-06-01T02:45:11;102013.94;;;12.78;81.09
43707;BME280;61348;53.392;-6.248;2023-06-01T02:47:38;102024.53;;;12.76;81.08
43707;BME280;61348;53.392;-6.248;2023-06-01T02:50:05;102011.31;;;12.73;81.17
43707;BME280;61348;53.392;-6.248;2023-06-01T02:52:33;102016.72;;;12.70;81.23
43707;BME280;61348;53.392;-6.248;2023-06-01T02:54:59;102014.25;;;12.68;81.25
43707;BME280;61348;53.392;-6.248;2023-06-01T02:57:26;102015.91;;;12.69;81.19
43707;BME280;61348;53.392;-6.248;2023-06-01T02:59:53;102014.25;;;12.68;81.26
43707;BME280;61348;53.392;-6.248;2023-06-01T03:02:20;102009.03;;;12.67;81.37
43707;BME280;61348;53.392;-6.248;2023-06-01T03:04:47;102010.53;;;12.64;81.45
43707;BME280;61348;53.392;-6.248;2023-06-01T03:07:16;102007.75;;;12.64;81.41
43707;BME280;61348;53.392;-6.248;2023-06-01T03:09:43;102007.56;;;12.61;81.47
43707;BME280;61348;53.392;-6.248;2023-06-01T03:12:11;102005.13;;;12.59;81.62
43707;BME280;61348;53.392;-6.248;2023-06-01T03:14:38;102005.44;;;12.58;81.44
43707;BME280;61348;53.392;-6.248;2023-06-01T03:17:05;102007.09;;;12.59;81.44
43707;BME280;61348;53.392;-6.248;2023-06-01T03:19:32;102010.22;;;12.57;81.67
43707;BME280;61348;53.392;-6.248;2023-06-01T03:21:59;102010.03;;;12.54;81.54
43707;BME280;61348;53.392;-6.248;2023-06-01T03:24:26;102015.25;;;12.55;81.51
43707;BME280;61348;53.392;-6.248;2023-06-01T03:26:55;102013.63;;;12.54;81.36
43707;BME280;61348;53.392;-6.248;2023-06-01T03:29:21;102014.28;;;12.51;81.56
43707;BME280;61348;53.392;-6.248;2023-06-01T03:31:48;102011.81;;;12.50;81.66
43707;BME280;61348;53.392;-6.248;2023-06-01T03:34:15;102018.19;;;12.50;81.73
43707;BME280;61348;53.392;-6.248;2023-06-01T03:36:42;102014.28;;;12.51;81.71
43707;BME280;61348;53.392;-6.248;2023-06-01T03:39:15;102013.81;;;12.49;81.61
43707;BME280;61348;53.392;-6.248;2023-06-01T03:41:42;102012.16;;;12.48;81.60
43707;BME280;61348;53.392;-6.248;2023-06-01T03:44:11;102013.63;;;12.46;81.89
43707;BME280;61348;53.392;-6.248;2023-06-01T03:46:39;102006.94;;;12.47;81.74
43707;BME280;61348;53.392;-6.248;2023-06-01T03:49:06;102007.09;;;12.50;81.72
43707;BME280;61348;53.392;-6.248;2023-06-01T03:51:33;102002.34;;;12.51;81.89
43707;BME280;61348;53.392;-6.248;2023-06-01T03:53:59;102012.00;;;12.53;81.80
43707;BME280;61348;53.392;-6.248;2023-06-01T03:56:27;102005.13;;;12.51;81.94
43707;BME280;61348;53.392;-6.248;2023-06-01T03:58:54;102001.53;;;12.50;82.09
43707;BME280;61348;53.392;-6.248;2023-06-01T04:01:21;102003.19;;;12.51;82.11
43707;BME280;61348;53.392;-6.248;2023-06-01T04:03:49;102003.81;;;12.48;82.34
43707;BME280;61348;53.392;-6.248;2023-06-01T04:06:17;101995.84;;;12.47;82.33
43707;BME280;61348;53.392;-6.248;2023-06-01T04:08:45;101996.63;;;12.47;82.54
43707;BME280;61348;53.392;-6.248;2023-06-01T04:11:16;102001.53;;;12.50;82.53
43707;BME280;61348;53.392;-6.248;2023-06-01T04:13:43;101992.06;;;12.51;82.70
43707;BME280;61348;53.392;-6.248;2023-06-01T04:16:10;102000.22;;;12.56;82.98
43707;BME280;61348;53.392;-6.248;2023-06-01T04:18:37;102009.38;;;12.57;83.14
43707;BME280;61348;53.392;-6.248;2023-06-01T04:21:04;102010.22;;;12.57;83.12
43707;BME280;61348;53.392;-6.248;2023-06-01T04:23:33;101994.69;;;12.56;83.54
43707;BME280;61348;53.392;-6.248;2023-06-01T04:26:00;101994.34;;;12.58;83.73
43707;BME280;61348;53.392;-6.248;2023-06-01T04:28:28;101995.63;;;12.60;83.74
43707;BME280;61348;53.392;-6.248;2023-06-01T04:30:56;101997.28;;;12.61;83.95
43707;BME280;61348;53.392;-6.248;2023-06-01T04:33:23;101997.28;;;12.61;84.08
43707;BME280;61348;53.392;-6.248;2023-06-01T04:35:51;102004.47;;;12.62;84.28
43707;BME280;61348;53.392;-6.248;2023-06-01T04:38:21;102011.16;;;12.61;84.14
43707;BME280;61348;53.392;-6.248;2023-06-01T04:40:52;102013.94;;;12.61;84.41
43707;BME280;61348;53.392;-6.248;2023-06-01T04:43:22;102010.03;;;12.62;84.37
43707;BME280;61348;53.392;-6.248;2023-06-01T04:45:50;102010.03;;;12.62;84.52
43707;BME280;61348;53.392;-6.248;2023-06-01T04:48:18;102022.47;;;12.65;84.52
43707;BME280;61348;53.392;-6.248;2023-06-01T04:50:44;102022.13;;;12.66;84.66
43707;BME280;61348;53.392;-6.248;2023-06-01T04:53:11;102019.34;;;12.66;84.65
43707;BME280;61348;53.392;-6.248;2023-06-01T04:55:38;102012.97;;;12.66;84.60
43707;BME280;61348;53.392;-6.248;2023-06-01T04:58:05;102008.22;;;12.66;84.66
43707;BME280;61348;53.392;-6.248;2023-06-01T05:00:34;102011.81;;;12.67;84.81
43707;BME280;61348;53.392;-6.248;2023-06-01T05:03:00;102008.69;;;12.68;84.83
43707;BME280;61348;53.392;-6.248;2023-06-01T05:05:30;102021.28;;;12.66;84.68
43707;BME280;61348;53.392;-6.248;2023-06-01T05:07:57;102016.91;;;12.65;84.69
43707;BME280;61348;53.392;-6.248;2023-06-01T05:10:24;102011.00;;;12.66;84.99
43707;BME280;61348;53.392;-6.248;2023-06-01T05:12:51;102017.03;;;12.68;85.08
43707;BME280;61348;53.392;-6.248;2023-06-01T05:15:18;102016.25;;;12.68;85.04
43707;BME280;61348;53.392;-6.248;2023-06-01T05:17:45;102014.78;;;12.70;85.07
43707;BME280;61348;53.392;-6.248;2023-06-01T05:20:15;102016.22;;;12.76;85.07
43707;BME280;61348;53.392;-6.248;2023-06-01T05:22:42;102017.84;;;12.77;84.90
43707;BME280;61348;53.392;-6.248;2023-06-01T05:25:10;102018.69;;;12.78;84.95
43707;BME280;61348;53.392;-6.248;2023-06-01T05:27:43;102011.66;;;12.80;84.94
43707;BME280;61348;53.392;-6.248;2023-06-01T05:30:10;102018.16;;;12.84;85.08
43707;BME280;61348;53.392;-6.248;2023-06-01T05:32:37;102023.88;;;12.88;84.97
43707;BME280;61348;53.392;-6.248;2023-06-01T05:35:04;102024.06;;;12.92;85.08
43707;BME280;61348;53.392;-6.248;2023-06-01T05:37:31;102022.59;;;12.94;84.95
43707;BME280;61348;53.392;-6.248;2023-06-01T05:39:58;102025.00;;;12.96;85.07
43707;BME280;61348;53.392;-6.248;2023-06-01T05:42:25;102015.53;;;12.97;85.15
43707;BME280;61348;53.392;-6.248;2023-06-01T05:44:51;102018.81;;;12.99;85.38
43707;BME280;61348;53.392;-6.248;2023-06-01T05:47:18;102017.31;;;13.01;85.54
43707;BME280;61348;53.392;-6.248;2023-06-01T05:49:46;102015.84;;;13.04;85.41
43707;BME280;61348;53.392;-6.248;2023-06-01T05:52:13;102020.78;;;13.07;85.38
43707;BME280;61348;53.392;-6.248;2023-06-01T05:54:40;102028.94;;;13.12;85.15
43707;BME280;61348;53.392;-6.248;2023-06-01T05:57:07;102024.50;;;13.19;85.10
43707;BME280;61348;53.392;-6.248;2023-06-01T05:59:34;102036.25;;;13.25;85.19
43707;BME280;61348;53.392;-6.248;2023-06-01T06:02:03;102033.94;;;13.27;84.88
43707;BME280;61348;53.392;-6.248;2023-06-01T06:04:30;102036.72;;;13.27;84.83
43707;BME280;61348;53.392;-6.248;2023-06-01T06:06:57;102041.16;;;13.28;84.81
43707;BME280;61348;53.392;-6.248;2023-06-01T06:09:24;102042.81;;;13.29;84.94
43707;BME280;61348;53.392;-6.248;2023-06-01T06:11:52;102033.47;;;13.33;84.62
43707;BME280;61348;53.392;-6.248;2023-06-01T06:14:19;102034.75;;;13.36;84.66
43707;BME280;61348;53.392;-6.248;2023-06-01T06:16:46;102039.66;;;13.39;84.39
43707;BME280;61348;53.392;-6.248;2023-06-01T06:19:13;102039.00;;;13.42;84.40
43707;BME280;61348;53.392;-6.248;2023-06-01T06:21:42;102047.00;;;13.43;84.35
43707;BME280;61348;53.392;-6.248;2023-06-01T06:24:09;102043.88;;;13.45;84.20
43707;BME280;61348;53.392;-6.248;2023-06-01T06:26:36;102057.28;;;13.52;84.22
43707;BME280;61348;53.392;-6.248;2023-06-01T06:29:03;102060.84;;;13.61;84.23
43707;BME280;61348;53.392;-6.248;2023-06-01T06:31:30;102052.44;;;13.69;83.96
43707;BME280;61348;53.392;-6.248;2023-06-01T06:33:59;102037.88;;;13.72;83.82
43707;BME280;61348;53.392;-6.248;2023-06-01T06:36:26;102043.91;;;13.74;83.77
43707;BME280;61348;53.392;-6.248;2023-06-01T06:38:53;102043.59;;;13.76;83.61
43707;BME280;61348;53.392;-6.248;2023-06-01T06:41:20;102036.19;;;13.80;83.69
43707;BME280;61348;53.392;-6.248;2023-06-01T06:43:47;102051.91;;;13.84;83.42
43707;BME280;61348;53.392;-6.248;2023-06-01T06:46:14;102050.53;;;13.90;83.46
43707;BME280;61348;53.392;-6.248;2023-06-01T06:48:41;102041.19;;;13.95;83.42
43707;BME280;61348;53.392;-6.248;2023-06-01T06:51:08;102052.75;;;14.06;83.28
43707;BME280;61348;53.392;-6.248;2023-06-01T06:53:35;102053.31;;;14.20;83.21
43707;BME280;61348;53.392;-6.248;2023-06-01T06:56:02;102056.03;;;14.28;83.01
43707;BME280;61348;53.392;-6.248;2023-06-01T06:58:29;102056.22;;;14.32;83.13
43707;BME280;61348;53.392;-6.248;2023-06-01T07:00:56;102052.56;;;14.40;83.08
43707;BME280;61348;53.392;-6.248;2023-06-01T07:03:22;102050.25;;;14.42;82.82
43707;BME280;61348;53.392;-6.248;2023-06-01T07:05:50;102060.97;;;14.52;83.15
43707;BME280;61348;53.392;-6.248;2023-06-01T07:08:17;102064.63;;;14.64;82.92
43707;BME280;61348;53.392;-6.248;2023-06-01T07:10:44;102063.53;;;14.78;82.91
43707;BME280;61348;53.392;-6.248;2023-06-01T07:13:11;102063.47;;;14.86;82.89
43707;BME280;61348;53.392;-6.248;2023-06-01T07:15:38;102059.44;;;14.96;82.78
43707;BME280;61348;53.392;-6.248;2023-06-01T07:18:04;102057.25;;;15.01;82.59
43707;BME280;61348;53.392;-6.248;2023-06-01T07:20:32;102062.13;;;15.04;82.41
43707;BME280;61348;53.392;-6.248;2023-06-01T07:22:59;102054.38;;;15.10;82.71
43707;BME280;61348;53.392;-6.248;2023-06-01T07:25:26;102052.78;;;15.21;83.30
43707;BME280;61348;53.392;-6.248;2023-06-01T07:27:53;102054.56;;;15.38;84.01
43707;BME280;61348;53.392;-6.248;2023-06-01T07:30:26;102055.19;;;15.55;84.18
43707;BME280;61348;53.392;-6.248;2023-06-01T07:32:52;102061.38;;;15.61;83.76
43707;BME280;61348;53.392;-6.248;2023-06-01T07:35:19;102059.75;;;15.72;83.45
43707;BME280;61348;53.392;-6.248;2023-06-01T07:37:46;102057.44;;;15.74;82.74
43707;BME280;61348;53.392;-6.248;2023-06-01T07:40:13;102068.47;;;15.70;81.64
43707;BME280;61348;53.392;-6.248;2023-06-01T07:42:40;102065.13;;;15.77;81.24
43707;BME280;61348;53.392;-6.248;2023-06-01T07:45:08;102057.22;;;15.91;81.63
43707;BME280;61348;53.392;-6.248;2023-06-01T07:47:35;102063.69;;;16.07;79.91
43707;BME280;61348;53.392;-6.248;2023-06-01T07:50:03;102056.94;;;16.08;79.98
43707;BME280;61348;53.392;-6.248;2023-06-01T07:52:30;102062.38;;;16.53;80.17
43707;BME280;61348;53.392;-6.248;2023-06-01T07:54:57;102062.56;;;16.72;78.24
43707;BME280;61348;53.392;-6.248;2023-06-01T07:57:24;102064.53;;;16.72;77.06
43707;BME280;61348;53.392;-6.248;2023-06-01T07:59:51;102073.22;;;16.82;75.85
43707;BME280;61348;53.392;-6.248;2023-06-01T08:02:19;102065.22;;;16.69;74.78
43707;BME280;61348;53.392;-6.248;2023-06-01T08:04:46;102075.81;;;17.03;74.15
43707;BME280;61348;53.392;-6.248;2023-06-01T08:07:13;102068.69;;;17.33;72.79
43707;BME280;61348;53.392;-6.248;2023-06-01T08:09:43;102076.00;;;18.00;72.22
43707;BME280;61348;53.392;-6.248;2023-06-01T08:12:10;102078.94;;;18.73;70.90
43707;BME280;61348;53.392;-6.248;2023-06-01T08:14:38;102074.25;;;19.38;69.39
43707;BME280;61348;53.392;-6.248;2023-06-01T08:17:05;102080.13;;;19.75;68.05
43707;BME280;61348;53.392;-6.248;2023-06-01T08:19:34;102073.34;;;20.02;66.83
43707;BME280;61348;53.392;-6.248;2023-06-01T08:22:02;102072.03;;;19.96;64.74
43707;BME280;61348;53.392;-6.248;2023-06-01T08:24:33;102077.59;;;20.16;64.54
43707;BME280;61348;53.392;-6.248;2023-06-01T08:27:00;102086.91;;;20.46;62.47
43707;BME280;61348;53.392;-6.248;2023-06-01T08:29:27;102080.50;;;20.23;62.03
43707;BME280;61348;53.392;-6.248;2023-06-01T08:32:09;102083.53;;;20.11;60.72
43707;BME280;61348;53.392;-6.248;2023-06-01T08:34:36;102089.75;;;19.74;60.73
43707;BME280;61348;53.392;-6.248;2023-06-01T08:37:03;102085.88;;;19.60;60.21
43707;BME280;61348;53.392;-6.248;2023-06-01T08:39:30;102094.50;;;19.70;60.55
43707;BME280;61348;53.392;-6.248;2023-06-01T08:42:06;102088.06;;;19.92;60.39
43707;BME280;61348;53.392;-6.248;2023-06-01T08:44:39;102095.53;;;20.60;58.93
43707;BME280;61348;53.392;-6.248;2023-06-01T08:47:08;102093.88;;;20.55;58.21
43707;BME280;61348;53.392;-6.248;2023-06-01T08:49:36;102085.66;;;20.17;57.99
43707;BME280;61348;53.392;-6.248;2023-06-01T08:52:07;102085.50;;;20.07;57.49
43707;BME280;61348;53.392;-6.248;2023-06-01T08:54:34;102083.41;;;19.77;57.99
43707;BME280;61348;53.392;-6.248;2023-06-01T08:57:04;102093.19;;;19.64;57.93
43707;BME280;61348;53.392;-6.248;2023-06-01T08:59:36;102090.75;;;19.21;57.89
43707;BME280;61348;53.392;-6.248;2023-06-01T09:02:03;102083.34;;;19.13;57.84
43707;BME280;61348;53.392;-6.248;2023-06-01T09:04:32;102085.44;;;18.77;58.28
43707;BME280;61348;53.392;-6.248;2023-06-01T09:07:02;102072.44;;;18.69;58.61
43707;BME280;61348;53.392;-6.248;2023-06-01T09:09:29;102079.25;;;18.68;58.44
43707;BME280;61348;53.392;-6.248;2023-06-01T09:14:45;102082.78;;;18.84;58.50
43707;BME280;61348;53.392;-6.248;2023-06-01T09:17:14;102084.69;;;18.61;58.57
43707;BME280;61348;53.392;-6.248;2023-06-01T09:19:44;102087.34;;;18.39;59.47
43707;BME280;61348;53.392;-6.248;2023-06-01T09:22:11;102082.72;;;18.46;59.33
43707;BME280;61348;53.392;-6.248;2023-06-01T09:24:54;102089.53;;;18.45;59.48
43707;BME280;61348;53.392;-6.248;2023-06-01T09:27:21;102085.25;;;18.51;59.14
43707;BME280;61348;53.392;-6.248;2023-06-01T09:29:56;102087.25;;;18.51;59.26
43707;BME280;61348;53.392;-6.248;2023-06-01T09:32:23;102077.22;;;18.50;59.48
43707;BME280;61348;53.392;-6.248;2023-06-01T09:34:50;102078.94;;;18.73;59.58
43707;BME280;61348;53.392;-6.248;2023-06-01T09:37:17;102073.47;;;19.19;58.55
43707;BME280;61348;53.392;-6.248;2023-06-01T09:39:45;102079.38;;;19.14;58.13
43707;BME280;61348;53.392;-6.248;2023-06-01T09:42:12;102079.09;;;19.00;58.56
43707;BME280;61348;53.392;-6.248;2023-06-01T09:44:40;102077.63;;;19.06;58.58
43707;BME280;61348;53.392;-6.248;2023-06-01T09:47:12;102084.00;;;19.06;58.47
43707;BME280;61348;53.392;-6.248;2023-06-01T09:49:41;102079.91;;;19.19;58.33
43707;BME280;61348;53.392;-6.248;2023-06-01T09:52:13;102064.84;;;19.50;58.07
43707;BME280;61348;53.392;-6.248;2023-06-01T09:54:49;102066.44;;;19.96;57.29
43707;BME280;61348;53.392;-6.248;2023-06-01T09:57:23;102071.09;;;20.64;55.93
43707;BME280;61348;53.392;-6.248;2023-06-01T09:59:50;102078.03;;;20.74;56.04
43707;BME280;61348;53.392;-6.248;2023-06-01T10:02:21;102081.97;;;21.29;55.40
43707;BME280;61348;53.392;-6.248;2023-06-01T10:04:54;102078.88;;;21.41;54.64
43707;BME280;61348;53.392;-6.248;2023-06-01T10:07:30;102076.09;;;21.07;54.29
43707;BME280;61348;53.392;-6.248;2023-06-01T10:09:59;102074.31;;;20.66;54.72
43707;BME280;61348;53.392;-6.248;2023-06-01T10:12:29;102083.81;;;20.28;55.11
43707;BME280;61348;53.392;-6.248;2023-06-01T10:15:00;102075.31;;;19.98;55.44
43707;BME280;61348;53.392;-6.248;2023-06-01T10:17:35;102087.69;;;19.71;55.74
43707;BME280;61348;53.392;-6.248;2023-06-01T10:20:05;102079.72;;;19.31;56.07
43707;BME280;61348;53.392;-6.248;2023-06-01T10:22:34;102075.66;;;19.29;55.90
43707;BME280;61348;53.392;-6.248;2023-06-01T10:25:01;102084.78;;;19.64;55.61
43707;BME280;61348;53.392;-6.248;2023-06-01T10:28:06;102080.16;;;20.01;55.08
43707;BME280;61348;53.392;-6.248;2023-06-01T10:30:31;102080.97;;;20.02;54.86
43707;BME280;61348;53.392;-6.248;2023-06-01T10:32:58;102089.00;;;19.77;54.68
43707;BME280;61348;53.392;-6.248;2023-06-01T10:40:34;102092.94;;;19.12;55.89
43707;BME280;61348;53.392;-6.248;2023-06-01T10:43:01;102095.63;;;18.85;56.28
43707;BME280;61348;53.392;-6.248;2023-06-01T10:48:02;102086.25;;;18.97;56.49
43707;BME280;61348;53.392;-6.248;2023-06-01T10:50:31;102076.78;;;19.05;56.38
43707;BME280;61348;53.392;-6.248;2023-06-01T10:53:30;102088.38;;;19.23;56.11
43707;BME280;61348;53.392;-6.248;2023-06-01T10:56:19;102079.38;;;19.14;56.58
43707;BME280;61348;53.392;-6.248;2023-06-01T10:59:10;102089.84;;;19.17;56.85
43707;BME280;61348;53.392;-6.248;2023-06-01T11:01:42;102081.16;;;19.03;56.75
43707;BME280;61348;53.392;-6.248;2023-06-01T11:04:10;102083.38;;;18.94;56.41
43707;BME280;61348;53.392;-6.248;2023-06-01T11:06:39;102080.13;;;18.72;56.59
43707;BME280;61348;53.392;-6.248;2023-06-01T11:09:08;102075.09;;;18.62;56.69
43707;BME280;61348;53.392;-6.248;2023-06-01T11:14:22;102086.53;;;18.73;56.82
43707;BME280;61348;53.392;-6.248;2023-06-01T11:16:53;102088.28;;;18.62;56.95
43707;BME280;61348;53.392;-6.248;2023-06-01T11:19:24;102091.13;;;18.46;57.02
43707;BME280;61348;53.392;-6.248;2023-06-01T11:21:59;102082.63;;;18.43;57.22
43707;BME280;61348;53.392;-6.248;2023-06-01T11:24:35;102081.38;;;18.40;57.46
43707;BME280;61348;53.392;-6.248;2023-06-01T11:27:11;102083.66;;;18.50;57.85
43707;BME280;61348;53.392;-6.248;2023-06-01T11:29:46;102069.19;;;18.67;57.78
43707;BME280;61348;53.392;-6.248;2023-06-01T11:32:22;102068.16;;;18.75;57.44
43707;BME280;61348;53.392;-6.248;2023-06-01T11:34:49;102066.38;;;18.67;57.50
43707;BME280;61348;53.392;-6.248;2023-06-01T11:37:19;102070.66;;;18.80;57.74
43707;BME280;61348;53.392;-6.248;2023-06-01T11:39:46;102063.94;;;18.85;58.03
43707;BME280;61348;53.392;-6.248;2023-06-01T11:42:17;102070.53;;;18.93;57.79
43707;BME280;61348;53.392;-6.248;2023-06-01T11:44:55;102075.84;;;18.98;57.74
43707;BME280;61348;53.392;-6.248;2023-06-01T11:47:22;102083.78;;;19.15;57.83
43707;BME280;61348;53.392;-6.248;2023-06-01T11:49:54;102075.44;;;19.18;57.52
43707;BME280;61348;53.392;-6.248;2023-06-01T11:52:21;102083.78;;;19.15;57.20
43707;BME280;61348;53.392;-6.248;2023-06-01T11:54:48;102079.09;;;19.00;57.25
43707;BME280;61348;53.392;-6.248;2023-06-01T11:57:17;102077.66;;;19.09;57.53
43707;BME280;61348;53.392;-6.248;2023-06-01T11:59:49;102078.41;;;19.06;57.00
43707;BME280;61348;53.392;-6.248;2023-06-01T12:02:26;102079.75;;;18.93;56.57
43707;BME280;61348;53.392;-6.248;2023-06-01T12:05:05;102077.84;;;18.97;57.04
43707;BME280;61348;53.392;-6.248;2023-06-01T12:07:47;102081.59;;;19.05;56.56
43707;BME280;61348;53.392;-6.248;2023-06-01T12:10:16;102080.72;;;19.01;56.28
43707;BME280;61348;53.392;-6.248;2023-06-01T12:12:43;102092.09;;;18.89;56.85
43707;BME280;61348;53.392;-6.248;2023-06-01T12:15:11;102078.88;;;18.89;56.40
43707;BME280;61348;53.392;-6.248;2023-06-01T12:20:38;102083.94;;;18.64;57.09
43707;BME280;61348;53.392;-6.248;2023-06-01T12:23:16;102081.88;;;18.80;56.75
43707;BME280;61348;53.392;-6.248;2023-06-01T12:25:49;102084.69;;;18.80;57.24
43707;BME280;61348;53.392;-6.248;2023-06-01T12:28:17;102091.19;;;19.04;56.72
43707;BME280;61348;53.392;-6.248;2023-06-01T12:30:44;102085.00;;;19.14;56.58
43707;BME280;61348;53.392;-6.248;2023-06-01T12:35:59;102085.88;;;19.18;56.21
43707;BME280;61348;53.392;-6.248;2023-06-01T12:38:27;102095.47;;;19.17;56.45
43707;BME280;61348;53.392;-6.248;2023-06-01T12:41:11;102104.78;;;19.21;56.38
43707;BME280;61348;53.392;-6.248;2023-06-01T12:43:38;102089.41;;;19.15;56.07
43707;BME280;61348;53.392;-6.248;2023-06-01T12:46:24;102096.44;;;19.24;56.29
43707;BME280;61348;53.392;-6.248;2023-06-01T12:49:11;102094.25;;;19.37;56.08
43707;BME280;61348;53.392;-6.248;2023-06-01T12:51:38;102095.66;;;19.47;55.86
43707;BME280;61348;53.392;-6.248;2023-06-01T12:54:06;102106.47;;;19.25;55.97
43707;BME280;61348;53.392;-6.248;2023-06-01T12:56:33;102100.63;;;19.15;56.34
43707;BME280;61348;53.392;-6.248;2023-06-01T12:59:02;102101.84;;;19.14;56.15
43707;BME280;61348;53.392;-6.248;2023-06-01T13:01:29;102100.13;;;19.09;56.20
43707;BME280;61348;53.392;-6.248;2023-06-01T13:03:56;102090.41;;;19.03;56.20
43707;BME280;61348;53.392;-6.248;2023-06-01T13:06:25;102101.53;;;19.19;55.99
43707;BME280;61348;53.392;-6.248;2023-06-01T13:08:51;102107.88;;;19.35;55.96
43707;BME280;61348;53.392;-6.248;2023-06-01T13:11:19;102106.84;;;19.43;55.58
43707;BME280;61348;53.392;-6.248;2023-06-01T13:13:46;102098.19;;;19.32;55.25
43707;BME280;61348;53.392;-6.248;2023-06-01T13:16:14;102101.44;;;19.34;55.58
43707;BME280;61348;53.392;-6.248;2023-06-01T13:18:42;102098.97;;;19.33;55.30
43707;BME280;61348;53.392;-6.248;2023-06-01T13:21:10;102094.72;;;19.20;55.50